Time;durP1;ratioP1;P1;durP2;ratioP2;P2;SDS_P1;SDS_P2;PMS_P1;PMS_P2;Temp;Humidity;BMP_temperature;BMP_pressure;BME280_temperature;BME280_humidity;BME280_pressure;Samples;Min_cycle;Max_cycle;Signal;HPM_P1;HPM_P2
2024/02/06 00:00:44;;;;;;;77.33;73.67;;;9.00;99.90;;;;;;4969136;28;20468;-75
2024/02/06 00:03:11;;;;;;;78.60;75.30;;;9.00;99.90;;;;;;4954346;28;20899;-75
2024/02/06 00:05:38;;;;;;;70.63;67.43;;;9.10;99.90;;;;;;4981824;28;20459;-75
2024/02/06 00:08:06;;;;;;;63.27;60.47;;;9.10;99.90;;;;;;4973844;28;20455;-75
2024/02/06 00:10:34;;;;;;;55.83;53.10;;;9.10;99.90;;;;;;4979216;28;21000;-75
2024/02/06 00:13:01;;;;;;;61.97;59.37;;;9.20;99.90;;;;;;4960658;28;20474;-75
2024/02/06 00:15:27;;;;;;;58.77;55.87;;;9.10;99.90;;;;;;4973776;28;20490;-75
2024/02/06 00:17:54;;;;;;;59.83;57.20;;;9.10;99.90;;;;;;4973862;28;20451;-75
2024/02/06 00:20:21;;;;;;;46.13;43.53;;;9.20;99.90;;;;;;4981519;28;20459;-75
2024/02/06 00:22:48;;;;;;;39.80;37.60;;;9.10;99.90;;;;;;4973351;28;20481;-74
2024/02/06 00:25:14;;;;;;;38.70;36.47;;;9.20;99.90;;;;;;4973712;28;20455;-75
2024/02/06 00:27:43;;;;;;;38.27;36.23;;;9.20;99.90;;;;;;4954396;28;20451;-75
2024/02/06 00:30:10;;;;;;;30.37;28.37;;;9.20;99.90;;;;;;4961402;28;20486;-75
2024/02/06 00:32:37;;;;;;;26.50;24.13;;;9.30;99.90;;;;;;4981470;28;20557;-75
2024/02/06 00:35:04;;;;;;;23.90;22.00;;;9.30;99.90;;;;;;4973871;28;20998;-75
2024/02/06 00:37:32;;;;;;;24.57;22.87;;;9.30;99.90;;;;;;4979379;28;20465;-75
2024/02/06 00:39:59;;;;;;;20.23;18.77;;;9.30;99.90;;;;;;4954496;28;20447;-75
2024/02/06 00:42:27;;;;;;;16.33;15.13;;;9.40;99.90;;;;;;4972903;28;20484;-75
2024/02/06 00:44:55;;;;;;;15.30;14.00;;;9.40;99.90;;;;;;4971661;28;20459;-75
2024/02/06 00:47:22;;;;;;;14.97;12.00;;;9.40;99.90;;;;;;4981220;28;20461;-74
2024/02/06 00:49:49;;;;;;;11.87;9.33;;;9.50;99.90;;;;;;4973407;28;20454;-75
2024/02/06 00:52:16;;;;;;;15.67;10.87;;;9.60;99.90;;;;;;4980520;28;20474;-75
2024/02/06 00:54:43;;;;;;;10.13;8.30;;;9.60;99.90;;;;;;4973382;28;20458;-74
2024/02/06 00:57:10;;;;;;;10.03;8.60;;;9.60;99.90;;;;;;4972998;28;20455;-74
2024/02/06 00:59:37;;;;;;;11.93;7.87;;;9.60;99.90;;;;;;4976119;28;20472;-74
2024/02/06 01:02:05;;;;;;;9.90;8.27;;;9.70;99.90;;;;;;4963373;28;21023;-74
2024/02/06 01:04:32;;;;;;;14.37;8.00;;;9.60;99.90;;;;;;4971943;28;20458;-74
2024/02/06 01:06:59;;;;;;;11.60;6.67;;;9.60;99.90;;;;;;4973198;28;20839;-74
2024/02/06 01:09:25;;;;;;;10.80;6.63;;;9.60;99.90;;;;;;4982412;28;20985;-74
2024/02/06 01:11:52;;;;;;;8.07;6.37;;;9.60;99.90;;;;;;4971240;28;20494;-74
2024/02/06 01:14:19;;;;;;;8.90;7.47;;;9.70;99.90;;;;;;4981568;28;20461;-74
2024/02/06 01:16:45;;;;;;;12.60;7.10;;;9.70;99.90;;;;;;4981414;28;20461;-74
2024/02/06 01:19:14;;;;;;;13.53;7.30;;;9.60;99.90;;;;;;4965627;28;20466;-74
2024/02/06 01:21:40;;;;;;;13.43;8.20;;;9.60;99.90;;;;;;4972265;28;20457;-74
2024/02/06 01:24:09;;;;;;;9.00;6.03;;;9.60;99.90;;;;;;4966114;28;20471;-74
2024/02/06 01:26:36;;;;;;;17.57;9.90;;;9.70;99.90;;;;;;4979282;28;20468;-74
2024/02/06 01:29:03;;;;;;;9.73;6.80;;;9.60;99.90;;;;;;4967950;28;20451;-74
2024/02/06 01:31:30;;;;;;;18.20;7.97;;;9.60;99.90;;;;;;4967135;28;20482;-74
2024/02/06 01:33:57;;;;;;;7.93;6.93;;;9.60;99.90;;;;;;4982626;28;20481;-74
2024/02/06 01:36:25;;;;;;;10.90;6.87;;;9.60;99.90;;;;;;4971061;28;20550;-74
2024/02/06 01:38:52;;;;;;;9.50;8.50;;;9.60;99.90;;;;;;4979873;28;21049;-74
2024/02/06 01:41:19;;;;;;;14.33;9.60;;;9.60;99.90;;;;;;4973302;28;20451;-75
2024/02/06 01:43:45;;;;;;;12.93;9.40;;;9.60;99.90;;;;;;4985056;28;20501;-73
2024/02/06 01:46:13;;;;;;;13.37;11.27;;;9.60;99.90;;;;;;4984198;28;20454;-74
2024/02/06 01:48:40;;;;;;;18.30;9.83;;;9.50;99.90;;;;;;4983854;28;20469;-74
2024/02/06 01:51:08;;;;;;;12.63;9.80;;;9.50;99.90;;;;;;4976426;28;20493;-74
2024/02/06 01:53:37;;;;;;;10.17;9.13;;;9.50;99.90;;;;;;4976717;28;20471;-74
2024/02/06 01:56:05;;;;;;;14.93;12.50;;;9.50;99.90;;;;;;4976564;28;20461;-74
2024/02/06 01:58:32;;;;;;;13.77;9.90;;;9.50;99.90;;;;;;4976195;28;21013;-74
2024/02/06 02:00:59;;;;;;;11.40;10.30;;;9.50;99.90;;;;;;4976005;28;20462;-74
2024/02/06 02:03:26;;;;;;;13.87;12.10;;;9.50;99.90;;;;;;4975026;28;20475;-74
2024/02/06 02:05:53;;;;;;;20.30;12.63;;;9.40;99.90;;;;;;4957239;28;20491;-73
2024/02/06 02:08:21;;;;;;;17.33;13.50;;;9.40;99.90;;;;;;4956889;28;20455;-73
2024/02/06 02:10:49;;;;;;;12.90;11.80;;;9.40;99.90;;;;;;4961128;28;20497;-73
2024/02/06 02:13:16;;;;;;;15.63;14.43;;;9.40;99.90;;;;;;4983626;28;20477;-74
2024/02/06 02:15:43;;;;;;;16.33;13.90;;;9.40;99.90;;;;;;4957019;28;20498;-74
2024/02/06 02:18:10;;;;;;;18.13;15.30;;;9.40;99.90;;;;;;4957324;28;20460;-74
2024/02/06 02:20:36;;;;;;;17.00;13.50;;;9.30;99.90;;;;;;4956624;28;20452;-74
2024/02/06 02:23:05;;;;;;;13.70;11.80;;;9.30;99.90;;;;;;4957029;28;20482;-74
2024/02/06 02:25:32;;;;;;;14.80;13.30;;;9.40;99.90;;;;;;4956101;28;20471;-74
2024/02/06 02:27:59;;;;;;;14.00;12.60;;;9.40;99.90;;;;;;4968924;28;20890;-74
2024/02/06 02:30:27;;;;;;;17.90;11.50;;;9.40;99.90;;;;;;4975634;28;20487;-74
2024/02/06 02:32:54;;;;;;;17.00;12.13;;;9.40;99.90;;;;;;4979150;28;20475;-73
2024/02/06 02:35:28;;;;;;;13.37;9.43;;;9.40;99.90;;;;;;4965455;28;20463;-74
2024/02/06 02:37:55;;;;;;;10.03;8.10;;;9.40;99.90;;;;;;4978706;28;20471;-74
2024/02/06 02:40:24;;;;;;;10.60;9.60;;;9.40;99.90;;;;;;4974360;28;20947;-74
2024/02/06 02:42:50;;;;;;;10.00;8.40;;;9.40;99.90;;;;;;4969719;28;20996;-74
2024/02/06 02:45:17;;;;;;;13.20;8.13;;;9.40;99.90;;;;;;4956267;28;20467;-74
2024/02/06 02:47:46;;;;;;;13.30;8.40;;;9.50;99.90;;;;;;4956602;28;20466;-74
2024/02/06 02:50:13;;;;;;;13.60;7.63;;;9.50;99.90;;;;;;4963507;28;20469;-74
2024/02/06 02:52:40;;;;;;;13.77;6.87;;;9.50;99.90;;;;;;4975468;28;20561;-74
2024/02/06 02:55:07;;;;;;;12.83;7.70;;;9.50;99.90;;;;;;4975532;28;20465;-74
2024/02/06 02:57:35;;;;;;;10.90;7.37;;;9.50;99.90;;;;;;4975303;28;20455;-74
2024/02/06 03:00:02;;;;;;;13.53;8.30;;;9.50;99.90;;;;;;4975189;28;20477;-74
2024/02/06 03:02:29;;;;;;;13.97;6.87;;;9.50;99.90;;;;;;4975389;28;20467;-74
2024/02/06 03:04:55;;;;;;;18.33;6.60;;;9.60;99.90;;;;;;4980601;28;20454;-75
2024/02/06 03:07:22;;;;;;;12.67;6.30;;;9.50;99.90;;;;;;4969268;28;20976;-74
2024/02/06 03:09:49;;;;;;;12.53;6.57;;;9.50;99.90;;;;;;4983518;28;20451;-74
2024/02/06 03:12:16;;;;;;;7.53;5.40;;;9.50;99.90;;;;;;4974609;28;20487;-74
2024/02/06 03:14:44;;;;;;;10.33;5.57;;;9.60;99.90;;;;;;4975300;28;20463;-74
2024/02/06 03:17:11;;;;;;;7.97;5.10;;;9.60;99.90;;;;;;4975163;28;20455;-74
2024/02/06 03:19:39;;;;;;;9.83;6.30;;;9.60;99.90;;;;;;4975081;28;20973;-74
2024/02/06 03:22:06;;;;;;;8.73;6.13;;;9.60;99.90;;;;;;4974351;28;20974;-74
2024/02/06 03:24:33;;;;;;;8.33;5.37;;;9.70;99.90;;;;;;4975314;28;20451;-74
2024/02/06 03:27:00;;;;;;;14.67;5.33;;;9.60;99.90;;;;;;4983185;28;20455;-74
2024/02/06 03:29:27;;;;;;;10.43;5.53;;;9.70;99.90;;;;;;4973680;28;20909;-74
2024/02/06 03:31:55;;;;;;;11.40;5.57;;;9.60;99.90;;;;;;4955256;28;21015;-74
2024/02/06 03:34:21;;;;;;;15.03;6.80;;;9.60;99.90;;;;;;4956332;28;20463;-74
2024/02/06 03:36:48;;;;;;;15.90;6.30;;;9.60;99.90;;;;;;4978110;28;20481;-74
2024/02/06 03:39:16;;;;;;;12.87;6.77;;;9.50;99.90;;;;;;4962408;28;20456;-74
2024/02/06 03:41:43;;;;;;;12.23;5.50;;;9.60;99.90;;;;;;4955348;28;20486;-74
2024/02/06 03:44:09;;;;;;;13.70;5.87;;;9.60;99.90;;;;;;4970947;28;20505;-74
2024/02/06 03:46:35;;;;;;;12.47;5.77;;;9.60;99.90;;;;;;4980147;28;20464;-74
2024/02/06 03:49:03;;;;;;;9.70;5.63;;;9.60;99.90;;;;;;4955354;28;20451;-74
2024/02/06 03:51:30;;;;;;;10.27;6.53;;;9.60;99.90;;;;;;4954620;28;20483;-75
2024/02/06 03:53:57;;;;;;;11.50;6.13;;;9.60;99.90;;;;;;4955146;28;20476;-74
2024/02/06 03:56:24;;;;;;;8.50;6.00;;;9.60;99.90;;;;;;4955233;28;20462;-74
2024/02/06 03:58:50;;;;;;;8.77;6.43;;;9.60;99.90;;;;;;4967538;28;20473;-74
2024/02/06 04:01:17;;;;;;;14.07;6.27;;;9.60;99.90;;;;;;4973921;28;20459;-74
2024/02/06 04:03:45;;;;;;;12.17;7.93;;;9.70;99.90;;;;;;4973915;28;20474;-74
2024/02/06 04:06:14;;;;;;;10.87;6.60;;;9.60;99.90;;;;;;4974604;28;20465;-74
2024/02/06 04:08:42;;;;;;;14.23;7.20;;;9.70;99.90;;;;;;4966693;28;20943;-74
2024/02/06 04:11:11;;;;;;;15.17;7.07;;;9.60;99.90;;;;;;4974446;28;20482;-74
2024/02/06 04:13:38;;;;;;;11.03;6.70;;;9.60;99.90;;;;;;4974240;28;21021;-74
2024/02/06 04:16:06;;;;;;;10.33;6.97;;;9.60;99.90;;;;;;4974428;28;20466;-74
2024/02/06 04:18:33;;;;;;;10.73;6.77;;;9.60;99.90;;;;;;4974270;28;20754;-74
2024/02/06 04:21:00;;;;;;;12.23;6.10;;;9.60;99.90;;;;;;4973845;28;20454;-74
2024/02/06 04:23:28;;;;;;;13.47;6.57;;;9.60;99.90;;;;;;4974221;28;20509;-75
2024/02/06 04:25:55;;;;;;;12.87;6.13;;;9.60;99.90;;;;;;4977131;28;20847;-74
2024/02/06 04:28:24;;;;;;;11.70;6.77;;;9.70;99.90;;;;;;4971682;28;20462;-74
2024/02/06 04:30:51;;;;;;;19.87;7.10;;;9.70;99.90;;;;;;4973833;28;20943;-74
2024/02/06 04:33:18;;;;;;;11.03;6.50;;;9.70;99.90;;;;;;4973852;28;20486;-74
2024/02/06 04:35:45;;;;;;;10.03;6.27;;;9.60;99.90;;;;;;4973779;28;20988;-74
2024/02/06 04:38:13;;;;;;;12.77;6.43;;;9.60;99.90;;;;;;4974020;28;20799;-74
2024/02/06 04:40:42;;;;;;;22.87;7.60;;;9.60;99.90;;;;;;4978502;28;20460;-74
2024/02/06 04:43:08;;;;;;;16.57;7.50;;;9.60;99.90;;;;;;4954520;28;20483;-74
2024/02/06 04:45:35;;;;;;;20.00;8.70;;;9.50;99.90;;;;;;4956820;28;20459;-74
2024/02/06 04:48:02;;;;;;;9.90;7.13;;;9.50;99.90;;;;;;4975283;28;20463;-74
2024/02/06 04:50:29;;;;;;;9.23;7.00;;;9.50;99.90;;;;;;4969803;28;20452;-74
2024/02/06 04:53:03;;;;;;;13.40;9.43;;;9.50;99.90;;;;;;4973769;28;20899;-74
2024/02/06 04:55:30;;;;;;;9.90;7.87;;;9.50;99.90;;;;;;4973619;28;20942;-74
2024/02/06 04:57:58;;;;;;;9.73;7.93;;;9.40;99.90;;;;;;4973315;28;20466;-74
2024/02/06 05:00:25;;;;;;;14.13;8.67;;;9.40;99.90;;;;;;4974830;28;20458;-74
2024/02/06 05:02:52;;;;;;;17.00;9.17;;;9.50;99.90;;;;;;4980157;28;20466;-74
2024/02/06 05:05:20;;;;;;;11.77;9.90;;;9.50;99.90;;;;;;4974001;28;20885;-74
2024/02/06 05:07:47;;;;;;;10.67;8.80;;;9.50;99.90;;;;;;4981986;28;20455;-75
2024/02/06 05:10:13;;;;;;;11.40;8.03;;;9.50;99.90;;;;;;4973559;28;20989;-75
2024/02/06 05:12:40;;;;;;;13.80;8.83;;;9.50;99.90;;;;;;4973569;28;20574;-75
2024/02/06 05:15:09;;;;;;;10.77;7.80;;;9.60;99.90;;;;;;4973048;28;20459;-75
2024/02/06 05:17:36;;;;;;;13.27;7.30;;;9.60;99.90;;;;;;4978551;28;20463;-75
2024/02/06 05:20:04;;;;;;;11.70;7.17;;;9.60;99.90;;;;;;4953918;28;20466;-75
2024/02/06 05:22:31;;;;;;;20.97;8.00;;;9.60;99.90;;;;;;4964399;28;20475;-75
2024/02/06 05:24:58;;;;;;;13.93;7.13;;;9.60;99.90;;;;;;4973579;28;20461;-75
2024/02/06 05:27:24;;;;;;;11.27;8.57;;;9.60;99.90;;;;;;4973138;28;20462;-75
2024/02/06 05:29:51;;;;;;;15.57;8.83;;;9.60;99.90;;;;;;4978145;28;20453;-75
2024/02/06 05:32:21;;;;;;;17.17;9.40;;;9.60;99.90;;;;;;4968452;28;20513;-74
2024/02/06 05:34:49;;;;;;;9.13;7.13;;;9.60;99.90;;;;;;4968294;28;20452;-74
2024/02/06 05:37:16;;;;;;;13.07;9.33;;;9.60;99.90;;;;;;4953731;28;20459;-75
2024/02/06 05:39:42;;;;;;;12.33;8.33;;;9.60;99.90;;;;;;4972802;28;20852;-75
2024/02/06 05:42:09;;;;;;;10.63;9.10;;;9.70;99.90;;;;;;4980093;28;20496;-74
2024/02/06 05:44:36;;;;;;;19.03;10.60;;;9.60;99.90;;;;;;4955483;28;20557;-75
2024/02/06 05:47:03;;;;;;;15.93;10.10;;;9.60;99.90;;;;;;4974651;28;20603;-74
2024/02/06 05:49:32;;;;;;;17.20;10.70;;;9.60;99.90;;;;;;4956616;28;20463;-75
2024/02/06 05:51:59;;;;;;;12.57;10.40;;;9.60;99.90;;;;;;4958664;28;20562;-75
2024/02/06 05:54:26;;;;;;;15.53;9.80;;;9.60;99.90;;;;;;4974866;28;20458;-75
2024/02/06 05:56:53;;;;;;;11.70;9.90;;;9.60;99.90;;;;;;4971362;28;20668;-75
2024/02/06 05:59:21;;;;;;;21.33;10.60;;;9.80;99.90;;;;;;4972954;28;20982;-74
2024/02/06 06:01:48;;;;;;;11.60;9.70;;;9.60;99.90;;;;;;4979523;28;20458;-75
2024/02/06 06:04:15;;;;;;;12.57;10.53;;;9.60;99.90;;;;;;4980038;28;20462;-75
2024/02/06 06:06:43;;;;;;;16.57;10.40;;;9.60;99.90;;;;;;4968354;28;20510;-74
2024/02/06 06:09:10;;;;;;;14.73;10.87;;;9.60;99.90;;;;;;4976386;28;20985;-75
2024/02/06 06:11:37;;;;;;;12.13;10.83;;;9.60;99.90;;;;;;4973970;28;20866;-75
2024/02/06 06:14:03;;;;;;;11.70;10.50;;;9.70;99.90;;;;;;4972266;28;20479;-74
2024/02/06 06:16:30;;;;;;;10.90;9.80;;;9.70;99.90;;;;;;4983063;28;20830;-75
2024/02/06 06:18:57;;;;;;;13.07;10.67;;;9.60;99.90;;;;;;4977917;28;20835;-75
2024/02/06 06:21:24;;;;;;;15.63;11.43;;;9.60;99.90;;;;;;4955364;28;20831;-76
2024/02/06 06:23:52;;;;;;;15.47;10.73;;;9.70;99.90;;;;;;4955803;28;20479;-74
2024/02/06 06:26:19;;;;;;;16.87;10.20;;;9.70;99.90;;;;;;4972067;28;20463;-75
2024/02/06 06:28:45;;;;;;;13.20;9.93;;;9.70;99.90;;;;;;4975444;28;20455;-74
2024/02/06 06:31:12;;;;;;;24.40;13.77;;;9.70;99.90;;;;;;4974566;28;20459;-75
2024/02/06 06:33:39;;;;;;;13.67;10.73;;;9.70;99.90;;;;;;4974787;28;20497;-76
2024/02/06 06:36:06;;;;;;;11.73;10.53;;;9.70;99.90;;;;;;4976247;28;20471;-76
2024/02/06 06:38:33;;;;;;;11.47;10.30;;;9.70;99.90;;;;;;4955765;28;20462;-75
2024/02/06 06:41:02;;;;;;;16.50;12.30;;;9.70;99.90;;;;;;4969539;28;20459;-75
2024/02/06 06:43:29;;;;;;;14.17;10.10;;;9.70;99.90;;;;;;4974866;28;20668;-75
2024/02/06 06:45:56;;;;;;;14.40;9.87;;;9.80;99.90;;;;;;4983153;28;20454;-75
2024/02/06 06:48:23;;;;;;;15.93;11.87;;;9.80;99.90;;;;;;4981370;28;21004;-76
2024/02/06 06:50:50;;;;;;;13.47;11.03;;;9.80;99.90;;;;;;4955303;28;20463;-75
2024/02/06 06:53:17;;;;;;;13.40;12.10;;;9.80;99.90;;;;;;4963460;28;20522;-75
2024/02/06 06:55:44;;;;;;;19.03;11.60;;;9.80;99.90;;;;;;4979152;28;20456;-75
2024/02/06 06:58:12;;;;;;;12.87;11.27;;;9.80;99.90;;;;;;4955801;28;20967;-75
2024/02/06 07:00:39;;;;;;;15.17;11.13;;;9.80;99.90;;;;;;4955239;28;20459;-75
2024/02/06 07:03:07;;;;;;;12.57;11.00;;;9.80;99.90;;;;;;4969808;28;20470;-75
2024/02/06 07:05:34;;;;;;;12.90;9.90;;;9.80;99.90;;;;;;4974844;28;20511;-75
2024/02/06 07:08:00;;;;;;;15.00;13.40;;;9.80;99.90;;;;;;4980767;28;20464;-75
2024/02/06 07:10:27;;;;;;;19.47;10.70;;;9.80;99.90;;;;;;4975847;28;20454;-75
2024/02/06 07:12:54;;;;;;;14.63;12.18;;;9.80;99.90;;;;;;4977137;28;20467;-75
2024/02/06 07:15:22;;;;;;;14.00;9.23;;;9.80;99.90;;;;;;4977117;28;20203;-75
2024/02/06 07:17:49;;;;;;;15.63;10.23;;;9.90;99.90;;;;;;4978751;28;20962;-76
2024/02/06 07:20:16;;;;;;;13.00;9.13;;;9.90;99.90;;;;;;4977741;28;20839;-76
2024/02/06 07:22:43;;;;;;;9.83;8.83;;;9.90;99.90;;;;;;4985598;28;20474;-75
2024/02/06 07:25:10;;;;;;;15.30;8.80;;;9.90;99.90;;;;;;4963450;28;20838;-75
2024/02/06 07:27:38;;;;;;;10.90;8.30;;;10.00;99.90;;;;;;4954966;28;20464;-76
2024/02/06 07:30:05;;;;;;;13.50;8.23;;;9.90;99.90;;;;;;4961025;28;20502;-75
2024/02/06 07:32:33;;;;;;;14.20;10.00;;;10.00;99.90;;;;;;4976179;28;20513;-75
2024/02/06 07:35:00;;;;;;;16.10;9.50;;;10.00;99.90;;;;;;4965899;28;20489;-74
2024/02/06 07:37:27;;;;;;;13.07;7.70;;;10.00;99.90;;;;;;4954813;28;21017;-75
2024/02/06 07:39:54;;;;;;;16.53;8.03;;;10.10;99.90;;;;;;4967989;28;20457;-74
2024/02/06 07:42:21;;;;;;;12.47;8.50;;;10.10;99.90;;;;;;4981047;28;20466;-75
2024/02/06 07:44:48;;;;;;;12.60;8.60;;;10.10;99.90;;;;;;4954492;28;20994;-74
2024/02/06 07:47:15;;;;;;;15.83;8.03;;;10.10;99.90;;;;;;4962477;28;20466;-75
2024/02/06 07:49:44;;;;;;;13.53;8.93;;;10.10;99.90;;;;;;4970668;28;20466;-75
2024/02/06 07:52:11;;;;;;;12.93;7.63;;;10.10;99.90;;;;;;4954233;28;20563;-75
2024/02/06 07:54:38;;;;;;;11.50;8.67;;;10.20;99.90;;;;;;4954521;28;20460;-75
2024/02/06 07:57:05;;;;;;;12.80;8.03;;;10.20;99.90;;;;;;4954415;28;20925;-75
2024/02/06 07:59:32;;;;;;;14.07;6.90;;;10.20;99.90;;;;;;4966620;28;20467;-75
2024/02/06 08:01:59;;;;;;;14.43;8.00;;;10.30;99.90;;;;;;4979092;28;20461;-75
2024/02/06 08:04:25;;;;;;;12.13;7.30;;;10.30;99.90;;;;;;4980514;28;20453;-75
2024/02/06 08:06:53;;;;;;;9.57;7.40;;;10.50;99.90;;;;;;4954448;28;21131;-75
2024/02/06 08:09:20;;;;;;;16.00;7.43;;;10.40;99.90;;;;;;4970852;28;20560;-75
2024/02/06 08:11:47;;;;;;;14.97;6.30;;;10.40;99.90;;;;;;4976959;28;20463;-75
2024/02/06 08:14:15;;;;;;;16.23;7.10;;;10.40;99.90;;;;;;4954029;28;20498;-75
2024/02/06 08:16:42;;;;;;;10.53;6.30;;;10.50;99.90;;;;;;4957657;28;20935;-75
2024/02/06 08:19:09;;;;;;;20.40;8.30;;;10.50;99.90;;;;;;4981424;28;20926;-75
2024/02/06 08:21:36;;;;;;;11.37;5.80;;;10.70;99.90;;;;;;4972892;28;20459;-75
2024/02/06 08:24:04;;;;;;;13.47;6.40;;;10.50;99.90;;;;;;4974757;28;20471;-75
2024/02/06 08:26:31;;;;;;;21.33;7.00;;;10.50;99.90;;;;;;4954419;28;20460;-75
2024/02/06 08:28:58;;;;;;;13.23;7.87;;;10.60;99.90;;;;;;4973480;28;20452;-75
2024/02/06 08:31:25;;;;;;;17.10;6.60;;;10.60;99.90;;;;;;4967056;28;20450;-75
2024/02/06 08:33:52;;;;;;;13.93;6.80;;;10.60;99.90;;;;;;4978260;28;20548;-75
2024/02/06 08:36:19;;;;;;;11.88;6.35;;;10.60;99.90;;;;;;4967905;28;20408;-74
2024/02/06 08:38:46;;;;;;;12.88;6.57;;;10.60;99.90;;;;;;4980333;28;20833;-75
2024/02/06 08:41:14;;;;;;;16.20;6.53;;;10.60;99.90;;;;;;4981897;28;20203;-75
2024/02/06 08:43:41;;;;;;;18.00;6.30;;;10.60;99.90;;;;;;4984644;28;20477;-75
2024/02/06 08:46:07;;;;;;;17.23;5.60;;;10.60;99.90;;;;;;4984888;28;20493;-75
2024/02/06 08:48:34;;;;;;;12.60;6.20;;;10.60;99.90;;;;;;4974178;28;20465;-75
2024/02/06 08:51:01;;;;;;;9.70;6.03;;;10.70;99.90;;;;;;4984121;28;20504;-75
2024/02/06 08:53:29;;;;;;;8.43;5.40;;;10.70;99.90;;;;;;4982035;28;20570;-76
2024/02/06 08:55:59;;;;;;;14.90;6.60;;;10.70;99.90;;;;;;4980813;28;20455;-75
2024/02/06 08:58:27;;;;;;;14.50;6.30;;;10.70;99.90;;;;;;4981926;28;20458;-76
2024/02/06 09:00:54;;;;;;;13.30;7.13;;;10.70;99.90;;;;;;4983501;28;20445;-75
2024/02/06 09:03:20;;;;;;;8.93;5.70;;;10.70;99.90;;;;;;4983499;28;20469;-75
2024/02/06 09:05:47;;;;;;;13.60;7.17;;;10.80;99.90;;;;;;4979909;28;20451;-75
2024/02/06 09:08:14;;;;;;;13.33;7.73;;;10.80;99.90;;;;;;4981071;28;20461;-76
2024/02/06 09:10:41;;;;;;;15.60;11.10;;;10.80;99.90;;;;;;4968408;28;20453;-74
2024/02/06 09:13:08;;;;;;;17.37;11.67;;;10.70;99.90;;;;;;4984312;28;20477;-75
2024/02/06 09:15:36;;;;;;;18.30;13.57;;;10.70;99.90;;;;;;4981833;28;20450;-75
2024/02/06 09:18:03;;;;;;;16.53;10.97;;;10.60;99.90;;;;;;4980968;28;21034;-75
2024/02/06 09:20:30;;;;;;;15.50;13.93;;;10.50;99.90;;;;;;4982437;28;20451;-74
2024/02/06 09:22:57;;;;;;;13.50;12.17;;;10.40;99.90;;;;;;4984343;28;20474;-74
2024/02/06 09:25:24;;;;;;;12.60;11.30;;;10.40;99.90;;;;;;4983107;28;20980;-75
2024/02/06 09:27:51;;;;;;;13.30;11.93;;;10.40;99.90;;;;;;4981212;28;20461;-74
2024/02/06 09:30:18;;;;;;;10.93;9.90;;;10.40;99.90;;;;;;4980892;28;20455;-75
2024/02/06 09:32:46;;;;;;;18.30;8.90;;;10.50;99.90;;;;;;4983914;28;20481;-75
2024/02/06 09:35:13;;;;;;;12.40;8.40;;;10.70;99.90;;;;;;4984644;28;20450;-75
2024/02/06 09:37:40;;;;;;;12.70;9.17;;;10.60;99.90;;;;;;4984787;28;20533;-74
2024/02/06 09:40:08;;;;;;;13.23;9.33;;;10.60;99.90;;;;;;4984308;28;20894;-75
2024/02/06 09:42:36;;;;;;;10.60;9.00;;;10.70;99.90;;;;;;4986455;28;21009;-75
2024/02/06 09:45:04;;;;;;;19.53;10.37;;;10.60;99.90;;;;;;4987898;28;20519;-75
2024/02/06 09:47:30;;;;;;;9.93;8.33;;;10.60;99.90;;;;;;4985828;28;20482;-75
2024/02/06 09:50:00;;;;;;;17.07;9.43;;;10.60;99.90;;;;;;4984742;28;20546;-75
2024/02/06 09:52:32;;;;;;;11.13;9.40;;;10.60;99.90;;;;;;4985796;28;20526;-74
2024/02/06 09:55:05;;;;;;;19.80;11.23;;;10.60;99.90;;;;;;4994606;28;20449;-74
2024/02/06 09:57:33;;;;;;;15.10;9.73;;;10.70;99.90;;;;;;4985498;28;20537;-74
2024/02/06 10:00:01;;;;;;;16.47;9.93;;;10.70;99.90;;;;;;4983941;28;20446;-75
2024/02/06 10:02:29;;;;;;;18.30;11.53;;;10.90;99.90;;;;;;4985666;28;20845;-75
2024/02/06 10:04:59;;;;;;;20.80;14.17;;;10.80;99.90;;;;;;4987319;28;20461;-75
2024/02/06 10:07:26;;;;;;;15.37;13.83;;;10.80;99.90;;;;;;4984935;28;20967;-74
2024/02/06 10:09:54;;;;;;;16.63;14.97;;;10.70;99.90;;;;;;4983774;28;20453;-74
2024/02/06 10:12:22;;;;;;;18.00;16.10;;;10.60;99.90;;;;;;4983873;28;20473;-74
2024/02/06 10:14:49;;;;;;;17.63;15.90;;;10.70;99.90;;;;;;4986771;28;20489;-75
2024/02/06 10:17:18;;;;;;;18.90;13.27;;;10.90;99.90;;;;;;4986631;28;20984;-75
2024/02/06 10:19:44;;;;;;;13.23;11.17;;;10.80;99.90;;;;;;4975573;28;20457;-74
2024/02/06 10:22:15;;;;;;;12.10;8.70;;;10.80;99.90;;;;;;4983003;28;20471;-74
2024/02/06 10:24:42;;;;;;;14.20;9.20;;;10.90;99.90;;;;;;4975585;28;20455;-75
2024/02/06 10:27:08;;;;;;;14.03;7.73;;;10.90;99.90;;;;;;4983114;28;20462;-74
2024/02/06 10:29:35;;;;;;;13.97;9.43;;;10.90;99.90;;;;;;4985853;28;20454;-74
2024/02/06 10:32:13;;;;;;;12.40;8.23;;;10.90;99.90;;;;;;4986395;28;20450;-75
2024/02/06 10:34:40;;;;;;;13.17;8.70;;;11.10;99.90;;;;;;4983348;28;20909;-74
2024/02/06 10:37:06;;;;;;;13.07;7.23;;;11.00;99.90;;;;;;4982998;28;20455;-74
2024/02/06 10:39:35;;;;;;;12.00;8.27;;;11.00;99.90;;;;;;4985052;28;20455;-75
2024/02/06 10:42:02;;;;;;;11.00;7.47;;;11.00;99.90;;;;;;4986035;28;20549;-74
2024/02/06 10:44:29;;;;;;;15.97;7.40;;;11.10;99.90;;;;;;4984495;28;20938;-74
2024/02/06 10:47:00;;;;;;;14.43;6.90;;;11.10;99.90;;;;;;4982455;28;20482;-75
2024/02/06 10:49:27;;;;;;;10.93;6.13;;;11.10;99.90;;;;;;4984321;28;20861;-74
2024/02/06 10:52:03;;;;;;;12.20;7.33;;;11.10;99.90;;;;;;4985538;28;20461;-75
2024/02/06 10:54:30;;;;;;;11.47;6.73;;;11.10;99.90;;;;;;4967693;28;21187;-74
2024/02/06 10:57:05;;;;;;;16.23;7.80;;;11.10;99.90;;;;;;4982368;28;20841;-75
2024/02/06 10:59:36;;;;;;;15.37;8.87;;;11.10;99.90;;;;;;4984355;28;20517;-74
2024/02/06 11:02:10;;;;;;;12.63;7.80;;;11.20;99.90;;;;;;4985262;28;20529;-74
2024/02/06 11:04:40;;;;;;;13.37;7.13;;;11.50;99.90;;;;;;4982476;28;20450;-74
2024/02/06 11:07:11;;;;;;;17.20;7.43;;;11.70;99.90;;;;;;4982403;28;20805;-74
2024/02/06 11:09:40;;;;;;;12.97;7.30;;;11.80;99.90;;;;;;4985690;28;20457;-74
2024/02/06 11:12:11;;;;;;;16.10;6.40;;;11.80;99.90;;;;;;4985920;28;20456;-74
2024/02/06 11:14:40;;;;;;;16.53;6.83;;;11.80;99.90;;;;;;4983161;28;20573;-75
2024/02/06 11:17:09;;;;;;;18.83;6.90;;;11.90;99.90;;;;;;4982549;28;20453;-74
2024/02/06 11:19:45;;;;;;;19.10;8.63;;;11.70;99.90;;;;;;4985123;28;20939;-74
2024/02/06 11:22:20;;;;;;;16.40;6.27;;;11.70;99.90;;;;;;4985817;28;20480;-75
2024/02/06 11:24:48;;;;;;;16.17;6.63;;;11.70;99.90;;;;;;4975441;28;20450;-75
2024/02/06 11:27:17;;;;;;;12.90;6.63;;;11.70;99.90;;;;;;4982573;28;20455;-75
2024/02/06 11:29:48;;;;;;;13.10;6.93;;;11.70;99.90;;;;;;4974739;28;20466;-75
2024/02/06 11:32:16;;;;;;;15.43;6.40;;;11.70;99.90;;;;;;4982473;28;20477;-75
2024/02/06 11:34:49;;;;;;;13.80;6.40;;;11.70;99.90;;;;;;4975318;28;20510;-75
2024/02/06 11:37:27;;;;;;;15.63;7.57;;;11.70;99.90;;;;;;4982163;28;20454;-75
2024/02/06 11:40:11;;;;;;;15.60;6.33;;;11.80;99.90;;;;;;4975776;28;20447;-75
2024/02/06 11:42:40;;;;;;;12.10;7.10;;;12.10;99.90;;;;;;4985138;28;20481;-75
2024/02/06 11:45:09;;;;;;;9.17;5.93;;;12.20;99.90;;;;;;4985520;28;20454;-75
2024/02/06 11:47:36;;;;;;;14.60;7.03;;;12.30;99.90;;;;;;4982867;28;20469;-75
2024/02/06 11:50:08;;;;;;;12.37;6.03;;;12.30;99.90;;;;;;4981953;28;20455;-75
2024/02/06 11:52:35;;;;;;;14.20;6.40;;;12.20;99.90;;;;;;4984254;28;20510;-75
2024/02/06 11:55:03;;;;;;;12.60;6.30;;;12.10;99.90;;;;;;4985300;28;20481;-75
2024/02/06 11:57:31;;;;;;;17.17;6.33;;;11.90;99.90;;;;;;4983287;28;20486;-75
2024/02/06 11:59:59;;;;;;;17.80;6.70;;;11.90;99.90;;;;;;4981466;28;20458;-76
2024/02/06 12:02:26;;;;;;;20.57;6.70;;;11.80;99.90;;;;;;4982922;28;20863;-76
2024/02/06 12:05:02;;;;;;;12.93;7.37;;;11.90;99.90;;;;;;4985205;28;20496;-75
2024/02/06 12:07:29;;;;;;;17.10;7.30;;;11.90;99.90;;;;;;4983628;28;20461;-75
2024/02/06 12:09:55;;;;;;;13.13;6.47;;;11.90;99.90;;;;;;4981823;28;20450;-75
2024/02/06 12:12:22;;;;;;;18.33;6.20;;;12.00;99.90;;;;;;4982516;28;21009;-75
2024/02/06 12:14:51;;;;;;;14.63;5.80;;;12.10;99.90;;;;;;4985090;28;20482;-75
2024/02/06 12:17:20;;;;;;;16.90;7.93;;;12.00;99.90;;;;;;4976955;28;20465;-75
2024/02/06 12:19:49;;;;;;;20.03;8.60;;;11.90;99.90;;;;;;4984872;28;20957;-75
2024/02/06 12:22:16;;;;;;;15.43;7.63;;;11.90;99.90;;;;;;4984869;28;20484;-75
2024/02/06 12:24:43;;;;;;;15.63;6.07;;;11.80;99.90;;;;;;4974051;28;20901;-75
2024/02/06 12:27:10;;;;;;;15.00;6.10;;;11.90;99.90;;;;;;4995581;23;20541;-69
2024/02/06 12:29:38;;;;;;;15.65;7.57;;;12.00;99.90;;;;;;4973088;28;20961;-69
2024/02/06 12:32:05;;;;;;;14.20;7.37;;;12.00;99.90;;;;;;4974963;28;20247;-68
2024/02/06 12:34:34;;;;;;;17.63;6.70;;;12.10;99.90;;;;;;4992877;28;20777;-69
2024/02/06 12:37:01;;;;;;;12.47;6.20;;;12.30;99.90;;;;;;4992699;28;20458;-69
2024/02/06 12:39:30;;;;;;;17.13;6.43;;;12.50;99.90;;;;;;4991209;28;20466;-69
2024/02/06 12:42:01;;;;;;;11.03;6.10;;;12.70;99.90;;;;;;4978389;28;21012;-69